Portada
METAR-TAF:

METAR-TAF

Aeropuertos :

Winchester, Tennessee, Estados Unidos

latitud: 35-10-39N, longitud: 086-03-58W, altitud: 298 m

Observación

El informe se hizo hace 22 minutos, a las 01:55 UTC
Viento 4 kt del sur-sureste
Temperatura 21°C
Humedad 83%
Presión 1016 hPa
Visibilidad: 16.1 km
Escasas nubes a una altura de 10000 ft

METAR: KBGF 290155Z AUTO 15004KT 10SM FEW100 21/18 A3000 RMK A01

Hora: 21:17 (02:17 UTC)


TAF: falta

Observaciones y pronósticos meteorológicos de más de 4000 aeropuertos (mensajes METAR y TAF).

Los puntos amarillos y rojos representan las estaciones disponibles.

Ponga el ratón en el punto deseado para ver el nombre de la estación.

Haga clic para ver las observaciones y los pronósticos meteorológicos.

Para cambiar el mapa : haga clic en los botones verdes con una cruz de color negro para hacer un zoom, en el botón verde con un guión para alejar o en las flechas verdes para mapas adyacentes.


METAR-TAF: